createdAt,value
2023-10-05T00:02:11.016Z,93854.03
2023-10-05T00:04:45.197Z,93855.59
2023-10-05T00:07:25.822Z,93848.56
2023-10-05T00:09:54.692Z,93854.03
2023-10-05T00:12:25.197Z,93861.81
2023-10-05T00:15:24.184Z,93854.25
2023-10-05T00:17:52.939Z,93866.66
2023-10-05T00:20:36.364Z,93867.44
2023-10-05T00:23:05.884Z,93864.84
2023-10-05T00:25:35.070Z,93871.31
2023-10-05T00:28:10.021Z,93869.19
2023-10-05T00:30:39.792Z,93877.22
2023-10-05T00:33:14.084Z,93880.47
2023-10-05T00:35:42.700Z,93887.59
2023-10-05T00:38:20.907Z,93887.59
2023-10-05T00:41:00.302Z,93888.00
2023-10-05T00:43:29.544Z,93890.28
2023-10-05T00:46:01.404Z,93897.72
2023-10-05T00:48:32.645Z,93909.53
2023-10-05T00:51:27.493Z,93904.59
2023-10-05T00:53:59.073Z,93917.22
2023-10-05T00:56:31.147Z,93926.41
2023-10-05T00:59:08.924Z,93920.09
2023-10-05T01:01:55.604Z,93923.63
2023-10-05T01:04:55.273Z,93931.16
2023-10-05T01:07:46.176Z,93947.84
2023-10-05T01:10:18.215Z,93944.47
2023-10-05T01:12:50.200Z,93953.31
2023-10-05T01:15:25.016Z,93953.44
2023-10-05T01:17:54.653Z,93955.50
2023-10-05T01:20:23.295Z,93967.38
2023-10-05T01:22:52.854Z,93973.41
2023-10-05T01:25:21.457Z,93975.78
2023-10-05T01:27:53.520Z,93983.38
2023-10-05T01:30:23.596Z,93981.19
2023-10-05T01:32:52.331Z,93982.53
2023-10-05T01:35:21.276Z,93974.50
2023-10-05T01:37:54.873Z,93984.28
2023-10-05T01:40:23.628Z,93984.91
2023-10-05T01:42:54.536Z,93991.88
2023-10-05T01:45:35.956Z,93996.97
2023-10-05T01:48:07.265Z,94001.50
2023-10-05T01:50:35.826Z,94015.78
2023-10-05T01:53:11.287Z,94009.06
2023-10-05T01:55:41.684Z,94017.78
2023-10-05T01:58:11.480Z,94020.63
2023-10-05T02:00:43.833Z,94025.09
2023-10-05T02:03:14.703Z,94024.22
2023-10-05T02:05:44.442Z,94031.66
2023-10-05T02:08:16.781Z,94036.41
2023-10-05T02:10:48.806Z,94033.34
2023-10-05T02:13:17.478Z,94039.47
2023-10-05T02:15:50.333Z,94039.22
2023-10-05T02:18:36.748Z,94035.28
2023-10-05T02:21:10.374Z,94044.34
2023-10-05T02:23:46.622Z,94051.63
2023-10-05T02:26:35.935Z,94048.56
2023-10-05T02:29:19.991Z,94053.72
2023-10-05T02:31:58.414Z,94061.03
2023-10-05T02:34:31.851Z,94065.84
2023-10-05T02:37:02.527Z,94068.13
2023-10-05T02:39:34.757Z,94070.97
2023-10-05T02:42:05.847Z,94076.97
2023-10-05T02:44:37.887Z,94074.53
2023-10-05T02:47:13.268Z,94072.16
2023-10-05T02:49:46.649Z,94064.16
2023-10-05T02:52:16.210Z,94077.59
2023-10-05T02:54:51.701Z,94066.19
2023-10-05T02:57:22.110Z,94074.38
2023-10-05T02:59:52.643Z,94085.69
2023-10-05T03:02:21.246Z,94081.13
2023-10-05T03:04:50.892Z,94084.78
2023-10-05T03:07:21.324Z,94084.00
2023-10-05T03:09:51.688Z,94091.28
2023-10-05T03:12:22.899Z,94090.78
2023-10-05T03:14:56.619Z,94087.84
2023-10-05T03:17:28.915Z,94093.69
2023-10-05T03:19:57.885Z,94100.16
2023-10-05T03:22:26.660Z,94106.38
2023-10-05T03:24:56.590Z,94116.16
2023-10-05T03:27:25.309Z,94104.84
2023-10-05T03:29:55.102Z,94118.72
2023-10-05T03:32:28.343Z,94120.28
2023-10-05T03:35:03.479Z,94121.81
2023-10-05T03:37:33.970Z,94137.03
2023-10-05T03:40:05.391Z,94140.28
2023-10-05T03:42:34.338Z,94137.38
2023-10-05T03:45:06.130Z,94144.88
2023-10-05T03:47:39.894Z,94156.81
2023-10-05T03:50:10.915Z,94150.97
2023-10-05T03:52:40.116Z,94156.91
2023-10-05T03:55:15.105Z,94158.53
2023-10-05T03:57:44.219Z,94160.94
2023-10-05T04:00:26.279Z,94172.00
2023-10-05T04:02:56.102Z,94164.53
2023-10-05T04:05:25.858Z,94168.66
2023-10-05T04:07:55.205Z,94159.81
2023-10-05T04:10:40.596Z,94168.88
2023-10-05T04:13:08.704Z,94163.34
2023-10-05T04:15:37.192Z,94162.94
2023-10-05T04:18:06.114Z,94169.25
2023-10-05T04:20:35.587Z,94172.22
2023-10-05T04:23:04.111Z,94167.09
2023-10-05T04:25:32.747Z,94168.84
2023-10-05T04:28:01.369Z,94160.56
2023-10-05T04:30:30.191Z,94162.94
2023-10-05T04:32:59.650Z,94146.88
2023-10-05T04:35:31.699Z,94145.28
2023-10-05T04:38:02.309Z,94160.91
2023-10-05T04:40:36.441Z,94158.13
2023-10-05T04:43:07.313Z,94155.00
2023-10-05T04:45:38.679Z,94160.66
2023-10-05T04:48:09.628Z,94152.75
2023-10-05T04:50:37.653Z,94164.44
2023-10-05T04:53:11.924Z,94159.91
2023-10-05T04:55:44.742Z,94162.84
2023-10-05T04:58:26.216Z,94167.97
2023-10-05T05:01:13.565Z,94167.81
2023-10-05T05:03:53.731Z,94175.13
2023-10-05T05:06:23.273Z,94186.00
2023-10-05T05:08:52.773Z,94181.28
2023-10-05T05:11:22.276Z,94187.81
2023-10-05T05:13:54.157Z,94190.78
2023-10-05T05:16:23.254Z,94203.78
2023-10-05T05:18:51.948Z,94191.75
2023-10-05T05:21:20.569Z,94194.13
2023-10-05T05:23:52.474Z,94195.72
2023-10-05T05:26:21.214Z,94200.44
2023-10-05T05:28:51.307Z,94219.56
2023-10-05T05:31:22.861Z,94224.28
2023-10-05T05:33:51.491Z,94217.38
2023-10-05T05:36:19.911Z,94226.47
2023-10-05T05:38:50.562Z,94234.75
2023-10-05T05:41:21.721Z,94244.22
2023-10-05T05:43:50.533Z,94248.56
2023-10-05T05:46:19.335Z,94250.13
2023-10-05T05:48:51.112Z,94243.22
2023-10-05T05:51:20.067Z,94247.97
2023-10-05T05:53:49.156Z,94251.72
2023-10-05T05:56:21.583Z,94248.94
2023-10-05T05:58:52.257Z,94268.28
2023-10-05T06:01:22.803Z,94265.13
2023-10-05T06:03:51.530Z,94279.53
2023-10-05T06:06:23.361Z,94284.84
2023-10-05T06:08:51.872Z,94285.44
2023-10-05T06:11:21.590Z,94294.53
2023-10-05T06:13:50.312Z,94287.63
2023-10-05T06:16:20.307Z,94295.50
2023-10-05T06:18:48.877Z,94287.63
2023-10-05T06:21:17.370Z,94295.91
2023-10-05T06:23:45.913Z,94294.31
2023-10-05T06:26:14.456Z,94298.66
2023-10-05T06:28:43.061Z,94295.09
2023-10-05T06:31:15.092Z,94296.09
2023-10-05T06:33:45.493Z,94300.63
2023-10-05T06:36:15.546Z,94303.19
2023-10-05T06:38:45.632Z,94298.03
2023-10-05T06:41:15.195Z,94310.69
2023-10-05T06:43:45.037Z,94318.00
2023-10-05T06:46:20.130Z,94322.94
2023-10-05T06:48:51.710Z,94326.09
2023-10-05T06:51:31.184Z,94332.81
2023-10-05T06:54:03.146Z,94334.41
2023-10-05T06:56:31.867Z,94344.25
2023-10-05T06:59:00.484Z,94343.28
2023-10-05T07:01:29.425Z,94357.09
2023-10-05T07:04:01.157Z,94356.50
2023-10-05T07:06:35.022Z,94360.06
2023-10-05T07:09:03.726Z,94364.38
2023-10-05T07:11:32.958Z,94363.00
2023-10-05T07:14:02.440Z,94357.66
2023-10-05T07:16:31.649Z,94368.69
2023-10-05T07:19:00.159Z,94369.88
2023-10-05T07:21:28.941Z,94385.25
2023-10-05T07:23:57.512Z,94386.03
2023-10-05T07:26:26.015Z,94389.38
2023-10-05T07:28:55.294Z,94390.53
2023-10-05T07:31:27.344Z,94391.34
2023-10-05T07:33:56.631Z,94395.91
2023-10-05T07:36:25.347Z,94398.44
2023-10-05T07:38:53.848Z,94394.84
2023-10-05T07:41:22.706Z,94396.84
2023-10-05T07:46:41.029Z,94408.41
2023-10-05T07:49:09.944Z,94410.56
2023-10-05T07:51:38.814Z,94413.91
2023-10-05T07:54:07.870Z,94405.81
2023-10-05T07:56:37.089Z,94417.44
2023-10-05T07:59:06.745Z,94413.06
2023-10-05T08:01:35.445Z,94415.59
2023-10-05T08:04:04.394Z,94422.31
2023-10-05T08:06:32.980Z,94419.91
2023-10-05T08:09:01.479Z,94428.94
2023-10-05T08:11:30.074Z,94428.94
2023-10-05T08:14:00.094Z,94432.13
2023-10-05T08:16:28.565Z,94435.69
2023-10-05T08:18:57.251Z,94436.97
2023-10-05T08:21:25.724Z,94446.03
2023-10-05T08:23:54.322Z,94446.66
2023-10-05T08:26:23.000Z,94454.34
2023-10-05T08:28:53.092Z,94464.97
2023-10-05T08:31:25.804Z,94461.72
2023-10-05T08:33:56.228Z,94460.91
2023-10-05T08:36:27.268Z,94468.78
2023-10-05T08:38:59.651Z,94478.03
2023-10-05T08:41:34.004Z,94482.31
2023-10-05T08:44:24.509Z,94483.31
2023-10-05T08:46:54.744Z,94484.59
2023-10-05T08:49:23.405Z,94493.03
2023-10-05T08:52:03.570Z,94497.91
2023-10-05T08:54:35.640Z,94490.03
2023-10-05T08:57:12.104Z,94499.34
2023-10-05T08:59:50.099Z,94498.44
2023-10-05T09:02:24.134Z,94505.91
2023-10-05T09:05:02.322Z,94513.19
2023-10-05T09:07:41.139Z,94513.81
2023-10-05T09:10:17.681Z,94516.91
2023-10-05T09:12:51.481Z,94512.69
2023-10-05T09:15:24.104Z,94507.59
2023-10-05T09:18:22.047Z,94518.06
2023-10-05T09:20:53.887Z,94520.69
2023-10-05T09:23:27.562Z,94518.50
2023-10-05T09:25:56.427Z,94519.53
2023-10-05T09:28:52.539Z,94521.03
2023-10-05T09:31:22.257Z,94528.69
2023-10-05T09:33:55.790Z,94531.44
2023-10-05T09:36:25.006Z,94534.81
2023-10-05T09:38:57.114Z,94536.84
2023-10-05T09:41:28.478Z,94537.28
2023-10-05T09:44:10.042Z,94541.75
2023-10-05T09:46:39.979Z,94541.66
2023-10-05T09:49:10.672Z,94541.06
2023-10-05T09:51:44.830Z,94510.66
2023-10-05T09:54:13.939Z,94547.84
2023-10-05T09:56:45.082Z,94542.13
2023-10-05T09:59:21.141Z,94547.84
2023-10-05T10:01:52.570Z,94565.56
2023-10-05T10:04:42.460Z,94570.41
2023-10-05T10:07:25.420Z,94561.06
2023-10-05T10:09:56.116Z,94584.50
2023-10-05T10:12:43.667Z,94585.66
2023-10-05T10:15:27.597Z,94596.03
2023-10-05T10:18:06.079Z,94604.06
2023-10-05T10:20:37.317Z,94610.13
2023-10-05T10:23:25.107Z,94617.06
2023-10-05T10:26:08.522Z,94622.63
2023-10-05T10:28:52.223Z,94611.34
2023-10-05T10:31:43.545Z,94631.44
2023-10-05T10:34:48.388Z,94630.47
2023-10-05T10:37:37.336Z,94621.97
2023-10-05T10:40:21.725Z,94635.72
2023-10-05T10:42:57.524Z,94634.41
2023-10-05T10:45:30.838Z,94635.19
2023-10-05T10:47:59.820Z,94635.88
2023-10-05T10:50:33.555Z,94652.34
2023-10-05T10:53:06.548Z,94646.91
2023-10-05T10:55:37.721Z,94644.34
2023-10-05T10:58:11.104Z,94647.88
2023-10-05T11:00:45.618Z,94649.44
2023-10-05T11:03:14.926Z,94640.53
2023-10-05T11:05:46.471Z,94638.56
2023-10-05T11:08:16.026Z,94632.06
2023-10-05T11:10:45.369Z,94642.94
2023-10-05T11:13:22.971Z,94643.91
2023-10-05T11:16:02.969Z,94636.69
2023-10-05T11:18:33.729Z,94650.69
2023-10-05T11:21:19.331Z,94656.50
2023-10-05T11:23:51.249Z,94664.47
2023-10-05T11:26:52.242Z,94672.81
2023-10-05T11:29:22.809Z,94677.28
2023-10-05T11:32:24.759Z,94684.56
2023-10-05T11:35:17.083Z,94687.41
2023-10-05T11:38:01.928Z,94690.28
2023-10-05T11:40:50.866Z,94694.34
2023-10-05T11:43:20.561Z,94697.25
2023-10-05T11:46:26.328Z,94695.31
2023-10-05T11:48:58.324Z,94706.94
2023-10-05T11:51:44.717Z,94711.03
2023-10-05T11:54:14.840Z,94709.41
2023-10-05T11:56:43.135Z,94717.69
2023-10-05T11:59:13.050Z,94724.06
2023-10-05T12:01:45.620Z,94716.09
2023-10-05T12:04:17.247Z,94728.56
2023-10-05T12:06:46.016Z,94730.16
2023-10-05T12:09:34.752Z,94722.88
2023-10-05T12:12:05.565Z,94743.22
2023-10-05T12:14:35.071Z,94737.19
2023-10-05T12:17:03.988Z,94731.91
2023-10-05T12:19:33.247Z,94739.88
2023-10-05T12:22:04.149Z,94734.47
2023-10-05T12:24:33.040Z,94722.69
2023-10-05T12:27:15.804Z,94749.06
2023-10-05T12:29:47.412Z,94743.47
2023-10-05T12:32:18.939Z,94752.88
2023-10-05T12:34:50.601Z,94753.56
2023-10-05T12:37:23.853Z,94755.44
2023-10-05T12:39:52.377Z,94751.63
2023-10-05T12:42:22.232Z,94744.78
2023-10-05T12:44:51.262Z,94742.78
2023-10-05T12:47:19.980Z,94733.84
2023-10-05T12:49:50.491Z,94745.63
2023-10-05T12:52:19.392Z,94753.31
2023-10-05T12:54:47.991Z,94758.41
2023-10-05T12:57:21.179Z,94753.09
2023-10-05T12:59:52.060Z,94759.28
2023-10-05T13:02:21.289Z,94763.25
2023-10-05T13:04:49.995Z,94772.63
2023-10-05T13:07:24.014Z,94770.00
2023-10-05T13:10:02.158Z,94790.78
2023-10-05T13:12:33.544Z,94789.09
2023-10-05T13:15:06.211Z,94789.38
2023-10-05T13:17:40.117Z,94783.25
2023-10-05T13:20:17.063Z,94790.50
2023-10-05T13:22:48.239Z,94788.84
2023-10-05T13:25:16.921Z,94789.28
2023-10-05T13:27:45.527Z,94794.72
2023-10-05T13:30:24.682Z,94795.00
2023-10-05T13:33:00.078Z,94791.13
2023-10-05T13:35:32.194Z,94788.13
2023-10-05T13:38:00.921Z,94785.84
2023-10-05T13:40:37.045Z,94800.16
2023-10-05T13:43:06.695Z,94798.22
2023-10-05T13:45:39.345Z,94800.25
2023-10-05T13:48:11.202Z,94811.91
2023-10-05T13:50:40.488Z,94809.06
2023-10-05T13:53:12.410Z,94811.81
2023-10-05T13:55:41.132Z,94818.94
2023-10-05T13:58:13.206Z,94826.47
2023-10-05T14:00:45.043Z,94827.59
2023-10-05T14:03:15.393Z,94838.03
2023-10-05T14:05:53.273Z,94834.41
2023-10-05T14:08:25.276Z,94833.00
2023-10-05T14:10:53.842Z,94822.41
2023-10-05T14:13:22.429Z,94826.91
2023-10-05T14:15:51.190Z,94833.34
2023-10-05T14:18:19.797Z,94839.44
2023-10-05T14:20:52.285Z,94831.75
2023-10-05T14:23:23.572Z,94838.66
2023-10-05T14:25:52.152Z,94835.13
2023-10-05T14:28:20.879Z,94847.22
2023-10-05T14:30:52.048Z,94846.69
2023-10-05T14:33:25.230Z,94847.03
2023-10-05T14:35:54.000Z,94858.34
2023-10-05T14:38:24.864Z,94860.72
2023-10-05T14:40:58.703Z,94870.25
2023-10-05T14:43:33.432Z,94877.41
2023-10-05T14:46:10.639Z,94881.47
2023-10-05T14:48:42.661Z,94886.69
2023-10-05T14:51:18.337Z,94873.44
2023-10-05T14:53:46.951Z,94878.81
2023-10-05T14:56:16.484Z,94889.94
2023-10-05T14:58:48.462Z,94897.00
2023-10-05T15:01:17.122Z,94898.59
2023-10-05T15:03:47.641Z,94904.44
2023-10-05T15:06:17.270Z,94910.19
2023-10-05T15:08:48.212Z,94908.22
2023-10-05T15:11:17.838Z,94923.88
2023-10-05T15:13:46.906Z,94931.56
2023-10-05T15:16:15.538Z,94932.72
2023-10-05T15:18:45.877Z,94929.59
2023-10-05T15:21:14.442Z,94923.88
2023-10-05T15:23:43.019Z,94939.31
2023-10-05T15:26:13.659Z,94940.03
2023-10-05T15:28:44.782Z,94950.91
2023-10-05T15:31:14.317Z,94956.09
2023-10-05T15:33:44.048Z,94961.50
2023-10-05T15:36:12.727Z,94960.94
2023-10-05T15:38:41.561Z,94962.19
2023-10-05T15:41:10.061Z,94962.09
2023-10-05T15:43:39.187Z,94962.94
2023-10-05T15:46:09.008Z,94966.38
2023-10-05T15:48:37.585Z,94975.56
2023-10-05T15:51:06.250Z,94972.63
2023-10-05T15:53:34.876Z,94977.03
2023-10-05T15:56:05.082Z,94981.88
2023-10-05T15:58:34.373Z,94987.81
2023-10-05T16:01:05.692Z,94991.34
2023-10-05T16:03:36.274Z,94990.63
2023-10-05T16:06:05.635Z,94996.69
2023-10-05T16:08:34.132Z,95005.22
2023-10-05T16:11:04.598Z,95007.19
2023-10-05T16:13:32.518Z,94998.31
2023-10-05T16:16:01.620Z,95002.72
2023-10-05T16:18:31.719Z,94996.91
2023-10-05T16:21:00.212Z,95002.25
2023-10-05T16:23:28.719Z,95009.56
2023-10-05T16:25:57.326Z,95010.69
2023-10-05T16:28:25.982Z,94999.06
2023-10-05T16:30:56.439Z,95006.03
2023-10-05T16:33:25.755Z,95019.34
2023-10-05T16:35:54.279Z,95013.78
2023-10-05T16:38:25.716Z,95018.63
2023-10-05T16:40:59.034Z,95015.50
2023-10-05T16:43:28.195Z,95021.88
2023-10-05T16:46:00.336Z,95010.50
2023-10-05T16:48:28.986Z,95017.53
2023-10-05T16:50:57.555Z,95031.09
2023-10-05T16:53:28.140Z,95024.13
2023-10-05T16:55:56.575Z,95024.13
2023-10-05T16:58:25.431Z,95028.28
2023-10-05T17:00:54.474Z,95036.25
2023-10-05T17:03:23.495Z,95035.31
2023-10-05T17:05:52.175Z,95040.28
2023-10-05T17:08:23.297Z,95041.00
2023-10-05T17:10:51.896Z,95041.50
2023-10-05T17:13:20.521Z,95047.97
2023-10-05T17:15:49.190Z,95047.25
2023-10-05T17:18:19.616Z,95055.00
2023-10-05T17:20:48.284Z,95053.13
2023-10-05T17:23:16.826Z,95050.47
2023-10-05T17:25:46.131Z,95058.63
2023-10-05T17:28:14.749Z,95047.31
2023-10-05T17:30:44.538Z,95052.63
2023-10-05T17:33:13.126Z,95054.16
2023-10-05T17:35:42.820Z,95056.78
2023-10-05T17:38:12.709Z,95055.88
2023-10-05T17:40:41.452Z,95070.19
2023-10-05T17:43:10.917Z,95054.84
2023-10-05T17:45:44.984Z,95060.84
2023-10-05T17:48:13.623Z,95076.47
2023-10-05T17:50:44.163Z,95066.94
2023-10-05T17:53:12.832Z,95070.47
2023-10-05T17:55:42.387Z,95078.13
2023-10-05T17:58:13.749Z,95075.06
2023-10-05T18:00:42.302Z,95079.06
2023-10-05T18:03:11.033Z,95070.47
2023-10-05T18:05:40.755Z,95072.94
2023-10-05T18:08:09.873Z,95077.72
2023-10-05T18:10:43.381Z,95062.94
2023-10-05T18:13:12.021Z,95072.94
2023-10-05T18:15:40.908Z,95068.31
2023-10-05T18:18:09.854Z,95062.72
2023-10-05T18:20:39.929Z,95064.06
2023-10-05T18:23:09.137Z,95061.31
2023-10-05T18:25:37.906Z,95080.78
2023-10-05T18:28:11.598Z,95086.97
2023-10-05T18:30:41.885Z,95070.13
2023-10-05T18:33:10.473Z,95049.91
2023-10-05T18:35:39.975Z,95076.78
2023-10-05T18:38:08.647Z,95069.91
2023-10-05T18:40:37.863Z,95051.16
2023-10-05T18:43:09.200Z,95062.47
2023-10-05T18:45:41.799Z,95063.66
2023-10-05T18:48:10.438Z,95075.53
2023-10-05T18:50:39.333Z,95076.16
2023-10-05T18:53:07.929Z,95074.00
2023-10-05T18:55:36.795Z,95062.16
2023-10-05T18:58:06.287Z,95063.13
2023-10-05T19:00:34.846Z,95066.09
2023-10-05T19:03:05.212Z,95069.91
2023-10-05T19:05:35.002Z,95069.22
2023-10-05T19:08:03.539Z,95077.50
2023-10-05T19:10:35.237Z,95077.16
2023-10-05T19:13:03.788Z,95073.59
2023-10-05T19:15:32.606Z,95081.78
2023-10-05T19:18:01.224Z,95064.53
2023-10-05T19:20:30.181Z,95078.41
2023-10-05T19:22:58.775Z,95076.25
2023-10-05T19:25:27.339Z,95092.09
2023-10-05T19:27:55.944Z,95086.06
2023-10-05T19:30:24.574Z,95080.63
2023-10-05T19:32:53.324Z,95094.28
2023-10-05T19:35:23.183Z,95084.16
2023-10-05T19:37:51.710Z,95085.59
2023-10-05T19:40:20.363Z,95094.72
2023-10-05T19:42:52.178Z,95094.09
2023-10-05T19:45:22.427Z,95093.31
2023-10-05T19:47:50.862Z,95107.78
2023-10-05T19:50:19.474Z,95095.69
2023-10-05T19:52:48.167Z,95095.28
2023-10-05T19:55:16.790Z,95085.16
2023-10-05T19:57:45.554Z,95096.09
2023-10-05T20:00:14.663Z,95093.09
2023-10-05T20:02:43.503Z,95100.22
2023-10-05T20:05:12.407Z,95088.44
2023-10-05T20:07:41.796Z,95098.44
2023-10-05T20:10:10.378Z,95094.88
2023-10-05T20:12:38.868Z,95112.13
2023-10-05T20:15:08.127Z,95111.66
2023-10-05T20:17:36.664Z,95096.84
2023-10-05T20:20:13.905Z,95113.13
2023-10-05T20:22:42.567Z,95106.22
2023-10-05T20:25:11.250Z,95104.22
2023-10-05T20:27:40.398Z,95100.88
2023-10-05T20:30:11.669Z,95095.88
2023-10-05T20:32:40.580Z,95102.25
2023-10-05T20:35:10.327Z,95090.75
2023-10-05T20:37:38.822Z,95099.88
2023-10-05T20:40:10.760Z,95123.91
2023-10-05T20:42:40.244Z,95112.78
2023-10-05T20:45:09.460Z,95106.44
2023-10-05T20:47:38.112Z,95113.16
2023-10-05T20:50:07.252Z,95115.97
2023-10-05T20:52:35.795Z,95116.75
2023-10-05T20:55:05.156Z,95120.50
2023-10-05T20:57:33.792Z,95111.00
2023-10-05T21:00:02.137Z,95119.53
2023-10-05T21:02:30.649Z,95112.38
2023-10-05T21:04:59.355Z,95118.53
2023-10-05T21:07:28.026Z,95114.16
2023-10-05T21:09:56.686Z,95107.03
2023-10-05T21:12:25.168Z,95110.19
2023-10-05T21:14:53.492Z,95114.34
2023-10-05T21:17:22.259Z,95114.34
2023-10-05T21:19:50.939Z,95121.69
2023-10-05T21:22:19.505Z,95117.94
2023-10-05T21:24:48.054Z,95104.22
2023-10-05T21:27:16.655Z,95115.75
2023-10-05T21:29:45.219Z,95103.63
2023-10-05T21:32:13.811Z,95125.28
2023-10-05T21:34:42.444Z,95124.47
2023-10-05T21:37:11.255Z,95127.66
2023-10-05T21:39:39.892Z,95129.25
2023-10-05T21:42:08.409Z,95112.19
2023-10-05T21:44:37.085Z,95119.31
2023-10-05T21:47:05.720Z,95126.06
2023-10-05T21:49:34.405Z,95133.22
2023-10-05T21:52:02.888Z,95129.03
2023-10-05T21:54:31.448Z,95127.25
2023-10-05T21:56:59.948Z,95121.09
2023-10-05T21:59:28.633Z,95127.66
2023-10-05T22:01:57.320Z,95130.63
2023-10-05T22:04:26.387Z,95128.44
2023-10-05T22:06:55.012Z,95136.00
2023-10-05T22:09:23.342Z,95132.81
2023-10-05T22:11:52.228Z,95131.41
2023-10-05T22:14:20.840Z,95127.66
2023-10-05T22:16:49.448Z,95142.75
2023-10-05T22:19:18.649Z,95144.75
2023-10-05T22:21:47.476Z,95147.72
2023-10-05T22:24:15.979Z,95147.91
2023-10-05T22:26:44.711Z,95140.78
2023-10-05T22:29:13.298Z,95144.94
2023-10-05T22:31:42.348Z,95134.41
2023-10-05T22:34:10.896Z,95133.44
2023-10-05T22:36:39.402Z,95142.75
2023-10-05T22:39:08.148Z,95146.13
2023-10-05T22:41:37.170Z,95147.91
2023-10-05T22:44:06.596Z,95145.53
2023-10-05T22:46:35.594Z,95154.28
2023-10-05T22:49:04.181Z,95161.22
2023-10-05T22:51:32.783Z,95151.50
2023-10-05T22:54:01.386Z,95149.13
2023-10-05T22:56:33.004Z,95148.72
2023-10-05T22:59:06.299Z,95153.28
2023-10-05T23:01:42.691Z,95151.09
2023-10-05T23:04:14.097Z,95163.00
2023-10-05T23:06:42.951Z,95176.50
2023-10-05T23:09:11.775Z,95168.16
2023-10-05T23:11:41.809Z,95180.66
2023-10-05T23:14:12.677Z,95187.81
2023-10-05T23:16:41.169Z,95184.41
2023-10-05T23:19:12.433Z,95165.50
2023-10-05T23:21:46.078Z,95188.97
2023-10-05T23:24:15.872Z,95177.81
2023-10-05T23:26:46.938Z,95190.91
2023-10-05T23:29:21.876Z,95196.28
2023-10-05T23:31:51.530Z,95205.41
2023-10-05T23:34:19.554Z,95206.97
2023-10-05T23:36:50.888Z,95211.50
2023-10-05T23:39:26.495Z,95207.94
2023-10-05T23:41:59.235Z,95211.13
2023-10-05T23:44:28.083Z,95217.06
2023-10-05T23:47:19.208Z,95201.97
2023-10-05T23:49:49.981Z,95213.66
2023-10-05T23:52:19.484Z,95219.75
2023-10-05T23:54:48.095Z,95218.09
2023-10-05T23:57:34.418Z,95226.19
